createdAt,value
2022-10-17T00:00:32.889Z,99.90
2022-10-17T00:02:59.516Z,99.90
2022-10-17T00:05:26.246Z,99.90
2022-10-17T00:07:53.106Z,99.90
2022-10-17T00:10:20.165Z,99.90
2022-10-17T00:12:47.335Z,99.90
2022-10-17T00:15:18.275Z,99.90
2022-10-17T00:17:45.381Z,99.90
2022-10-17T00:20:12.721Z,99.90
2022-10-17T00:22:39.456Z,99.90
2022-10-17T00:25:06.279Z,99.90
2022-10-17T00:27:39.900Z,99.90
2022-10-17T00:30:07.568Z,99.90
2022-10-17T00:32:34.141Z,99.90
2022-10-17T00:35:00.711Z,99.90
2022-10-17T00:37:27.333Z,99.90
2022-10-17T00:39:54.018Z,99.90
2022-10-17T00:42:20.735Z,99.90
2022-10-17T00:44:47.581Z,99.90
2022-10-17T00:47:16.187Z,99.90
2022-10-17T00:49:43.029Z,99.90
2022-10-17T00:52:11.692Z,99.90
2022-10-17T00:54:40.053Z,99.90
2022-10-17T00:57:06.993Z,99.90
2022-10-17T00:59:34.251Z,99.90
2022-10-17T01:02:03.261Z,99.90
2022-10-17T01:04:29.888Z,99.90
2022-10-17T01:06:56.468Z,99.90
2022-10-17T01:09:23.483Z,99.90
2022-10-17T01:11:53.686Z,99.90
2022-10-17T01:14:28.881Z,99.90
2022-10-17T01:17:07.488Z,99.90
2022-10-17T01:19:52.155Z,99.90
2022-10-17T01:22:22.857Z,99.90
2022-10-17T01:24:58.798Z,99.90
2022-10-17T01:27:25.342Z,99.90
2022-10-17T01:29:54.986Z,99.90
2022-10-17T01:32:33.680Z,99.90
2022-10-17T01:35:04.093Z,99.90
2022-10-17T01:37:33.066Z,99.90
2022-10-17T01:40:15.958Z,99.90
2022-10-17T01:42:47.600Z,99.90
2022-10-17T01:45:17.012Z,99.90
2022-10-17T01:47:46.423Z,99.90
2022-10-17T01:50:18.846Z,99.90
2022-10-17T01:52:48.057Z,99.90
2022-10-17T01:55:23.668Z,99.90
2022-10-17T01:57:51.632Z,99.90
2022-10-17T02:00:20.968Z,99.90
2022-10-17T02:02:48.768Z,99.90
2022-10-17T02:05:17.231Z,99.90
2022-10-17T02:07:43.795Z,99.90
2022-10-17T02:10:16.115Z,99.90
2022-10-17T02:12:47.104Z,99.90
2022-10-17T02:15:13.807Z,99.90
2022-10-17T02:17:59.156Z,99.90
2022-10-17T02:20:30.331Z,99.90
2022-10-17T02:23:00.237Z,99.90
2022-10-17T02:25:29.846Z,99.90
2022-10-17T02:28:07.562Z,99.90
2022-10-17T02:30:37.107Z,99.90
2022-10-17T02:33:07.517Z,99.90
2022-10-17T02:35:36.543Z,99.90
2022-10-17T02:38:04.843Z,99.90
2022-10-17T02:40:31.749Z,99.90
2022-10-17T02:42:59.142Z,99.90
2022-10-17T02:45:26.763Z,99.90
2022-10-17T02:47:59.303Z,99.90
2022-10-17T02:50:31.294Z,99.90
2022-10-17T02:53:12.075Z,99.90
2022-10-17T02:55:41.082Z,99.90
2022-10-17T02:58:10.599Z,99.90
2022-10-17T03:00:38.796Z,99.90
2022-10-17T03:03:18.515Z,99.90
2022-10-17T03:05:45.160Z,99.90
2022-10-17T03:08:11.795Z,99.90
2022-10-17T03:10:38.507Z,99.90
2022-10-17T03:13:05.164Z,99.90
2022-10-17T03:15:31.881Z,99.90
2022-10-17T03:17:58.538Z,99.90
2022-10-17T03:20:25.116Z,99.90
2022-10-17T03:22:51.725Z,99.90
2022-10-17T03:25:18.445Z,99.90
2022-10-17T03:27:45.364Z,99.90
2022-10-17T03:30:11.983Z,99.90
2022-10-17T03:32:38.625Z,99.90
2022-10-17T03:35:05.589Z,99.90
2022-10-17T03:37:32.539Z,99.90
2022-10-17T03:39:59.275Z,99.90
2022-10-17T03:42:25.863Z,99.90
2022-10-17T03:44:52.467Z,99.90
2022-10-17T03:47:19.127Z,99.90
2022-10-17T03:49:45.812Z,99.90
2022-10-17T03:52:13.190Z,99.90
2022-10-17T03:54:39.872Z,99.90
2022-10-17T03:57:06.475Z,99.90
2022-10-17T03:59:33.093Z,99.90
2022-10-17T04:01:59.760Z,99.90
2022-10-17T04:04:26.386Z,99.90
2022-10-17T04:06:53.049Z,99.90
2022-10-17T04:09:19.846Z,99.90
2022-10-17T04:11:46.450Z,99.90
2022-10-17T04:14:13.573Z,99.90
2022-10-17T04:16:40.136Z,99.90
2022-10-17T04:19:06.720Z,99.90
2022-10-17T04:21:33.377Z,99.90
2022-10-17T04:24:00.664Z,99.90
2022-10-17T04:26:27.738Z,99.90
2022-10-17T04:28:54.412Z,99.90
2022-10-17T04:31:21.195Z,99.90
2022-10-17T04:33:49.018Z,99.90
2022-10-17T04:36:17.313Z,99.90
2022-10-17T04:38:44.047Z,99.90
2022-10-17T04:41:12.242Z,99.90
2022-10-17T04:43:39.370Z,99.90
2022-10-17T04:46:10.439Z,99.90
2022-10-17T04:48:37.465Z,99.90
2022-10-17T04:51:05.531Z,99.90
2022-10-17T04:53:33.422Z,99.90
2022-10-17T04:56:00.185Z,99.90
2022-10-17T04:58:29.420Z,99.90
2022-10-17T05:00:56.342Z,99.90
2022-10-17T05:03:22.954Z,99.90
2022-10-17T05:05:49.700Z,99.90
2022-10-17T05:08:16.326Z,99.90
2022-10-17T05:10:44.020Z,99.90
2022-10-17T05:13:10.867Z,99.90
2022-10-17T05:15:37.907Z,99.90
2022-10-17T05:18:05.130Z,99.90
2022-10-17T05:20:31.951Z,99.90
2022-10-17T05:22:59.762Z,99.90
2022-10-17T05:25:26.376Z,99.90
2022-10-17T05:27:53.411Z,99.90
2022-10-17T05:30:20.196Z,99.90
2022-10-17T05:32:46.783Z,99.90
2022-10-17T05:35:13.343Z,99.90
2022-10-17T05:37:39.958Z,99.90
2022-10-17T05:40:06.826Z,99.90
2022-10-17T05:42:33.782Z,99.90
2022-10-17T05:45:00.582Z,99.90
2022-10-17T05:47:27.549Z,99.90
2022-10-17T05:49:54.495Z,99.90
2022-10-17T05:52:21.871Z,99.90
2022-10-17T05:54:48.547Z,99.90
2022-10-17T05:57:15.132Z,99.90
2022-10-17T05:59:41.838Z,99.90
2022-10-17T06:02:09.284Z,99.90
2022-10-17T06:04:36.016Z,99.90
2022-10-17T06:07:02.620Z,99.90
2022-10-17T06:09:29.365Z,99.90
2022-10-17T06:11:56.008Z,99.90
2022-10-17T06:14:22.601Z,99.90
2022-10-17T06:16:49.179Z,99.90
2022-10-17T06:19:15.879Z,99.90
2022-10-17T06:21:42.562Z,99.90
2022-10-17T06:24:09.197Z,99.90
2022-10-17T06:26:35.763Z,99.90
2022-10-17T06:29:02.430Z,99.90
2022-10-17T06:31:29.100Z,99.90
2022-10-17T06:33:55.727Z,99.90
2022-10-17T06:36:22.292Z,99.90
2022-10-17T06:38:48.883Z,99.90
2022-10-17T06:41:16.271Z,99.90
2022-10-17T06:43:43.402Z,99.90
2022-10-17T06:46:09.993Z,99.90
2022-10-17T06:48:36.654Z,99.90
2022-10-17T06:51:04.647Z,99.90
2022-10-17T06:53:32.923Z,99.90
2022-10-17T06:56:04.037Z,99.90
2022-10-17T06:58:31.697Z,99.90
2022-10-17T07:01:05.777Z,99.90
2022-10-17T07:03:32.616Z,99.90
2022-10-17T07:05:59.686Z,99.90
2022-10-17T07:08:26.807Z,99.90
2022-10-17T07:10:53.446Z,99.90
2022-10-17T07:13:20.133Z,99.90
2022-10-17T07:15:47.053Z,99.90
2022-10-17T07:18:13.891Z,99.90
2022-10-17T07:20:40.779Z,99.90
2022-10-17T07:23:07.699Z,99.90
2022-10-17T07:25:36.500Z,99.90
2022-10-17T07:28:06.087Z,99.90
2022-10-17T07:30:33.010Z,99.90
2022-10-17T07:32:59.677Z,99.90
2022-10-17T07:35:26.323Z,99.90
2022-10-17T07:37:52.961Z,99.90
2022-10-17T07:40:19.520Z,99.90
2022-10-17T07:42:46.105Z,99.90
2022-10-17T07:45:12.667Z,99.90
2022-10-17T07:47:39.248Z,99.90
2022-10-17T07:50:06.016Z,99.90
2022-10-17T07:52:32.768Z,99.90
2022-10-17T07:54:59.544Z,99.90
2022-10-17T07:57:26.296Z,99.90
2022-10-17T07:59:54.267Z,99.90
2022-10-17T08:02:22.785Z,99.90
2022-10-17T08:04:49.775Z,99.90
2022-10-17T08:07:23.036Z,99.90
2022-10-17T08:09:52.049Z,99.90
2022-10-17T08:12:18.963Z,99.90
2022-10-17T08:14:45.604Z,99.90
2022-10-17T08:17:12.208Z,99.90
2022-10-17T08:19:40.469Z,99.90
2022-10-17T08:22:07.747Z,99.90
2022-10-17T08:24:34.422Z,99.90
2022-10-17T08:27:01.086Z,99.90
2022-10-17T08:29:27.981Z,99.70
2022-10-17T08:31:58.616Z,99.70
2022-10-17T08:34:28.175Z,99.60
2022-10-17T08:36:54.751Z,99.10
2022-10-17T08:39:21.328Z,97.80
2022-10-17T08:42:00.014Z,96.50
2022-10-17T08:44:29.733Z,94.40
2022-10-17T08:46:58.971Z,92.70
2022-10-17T08:49:37.508Z,90.20
2022-10-17T08:52:10.608Z,84.00
2022-10-17T08:54:46.223Z,78.10
2022-10-17T08:57:14.117Z,73.30
2022-10-17T08:59:41.211Z,68.10
2022-10-17T09:02:14.038Z,63.20
2022-10-17T09:05:01.714Z,62.10
2022-10-17T09:07:31.550Z,60.50
2022-10-17T09:10:11.697Z,59.20
2022-10-17T09:12:41.182Z,57.90
2022-10-17T09:15:34.167Z,55.20
2022-10-17T09:18:13.238Z,54.30
2022-10-17T09:20:42.628Z,52.70
2022-10-17T09:23:37.008Z,53.40
2022-10-17T09:26:05.744Z,53.40
2022-10-17T09:28:34.019Z,53.10
2022-10-17T09:31:00.819Z,53.90
2022-10-17T09:33:35.165Z,54.30
2022-10-17T09:36:11.428Z,55.50
2022-10-17T09:38:39.942Z,57.50
2022-10-17T09:41:39.241Z,60.20
2022-10-17T09:44:12.395Z,62.50
2022-10-17T09:46:39.242Z,65.90
2022-10-17T09:49:05.792Z,68.50
2022-10-17T09:51:32.704Z,71.20
2022-10-17T09:54:04.027Z,72.70
2022-10-17T09:56:30.651Z,75.20
2022-10-17T09:58:58.584Z,76.10
2022-10-17T10:01:26.401Z,77.20
2022-10-17T10:04:11.968Z,77.50
2022-10-17T10:06:39.503Z,77.30
2022-10-17T10:09:07.355Z,79.40
2022-10-17T10:11:50.497Z,79.40
2022-10-17T10:14:21.308Z,78.50
2022-10-17T10:16:48.377Z,79.80
2022-10-17T10:19:31.797Z,80.40
2022-10-17T10:21:59.591Z,79.10
2022-10-17T10:24:30.838Z,76.80
2022-10-17T10:26:59.983Z,73.60
2022-10-17T10:29:28.856Z,70.40
2022-10-17T10:31:55.696Z,64.50
2022-10-17T10:34:24.605Z,58.70
2022-10-17T10:36:53.947Z,56.80
2022-10-17T10:39:26.861Z,54.50
2022-10-17T10:41:53.545Z,52.10
2022-10-17T10:44:23.844Z,49.70
2022-10-17T10:47:05.598Z,49.40
2022-10-17T10:49:32.785Z,47.00
2022-10-17T10:52:01.691Z,45.30
2022-10-17T10:54:32.265Z,44.60
2022-10-17T10:57:00.140Z,43.70
2022-10-17T10:59:30.423Z,43.80
2022-10-17T11:01:57.016Z,44.60
2022-10-17T11:04:27.960Z,44.40
2022-10-17T11:07:00.929Z,43.30
2022-10-17T11:09:42.909Z,43.00
2022-10-17T11:12:21.562Z,42.30
2022-10-17T11:15:03.542Z,42.40
2022-10-17T11:17:41.964Z,44.30
2022-10-17T11:20:08.519Z,41.70
2022-10-17T11:22:38.678Z,40.40
2022-10-17T11:25:13.007Z,41.20
2022-10-17T11:27:39.699Z,41.60
2022-10-17T11:30:06.464Z,40.90
2022-10-17T11:32:53.962Z,41.20
2022-10-17T11:35:26.293Z,40.10
2022-10-17T11:37:57.424Z,39.60
2022-10-17T11:40:31.890Z,38.90
2022-10-17T11:43:00.887Z,39.20
2022-10-17T11:45:31.177Z,38.40
2022-10-17T11:48:12.555Z,40.60
2022-10-17T11:53:31.366Z,40.70
2022-10-17T11:55:59.309Z,41.40
2022-10-17T11:58:35.795Z,40.00
2022-10-17T12:01:09.087Z,37.50
2022-10-17T12:03:51.923Z,38.40
2022-10-17T12:06:29.465Z,38.70
2022-10-17T12:08:56.417Z,38.70
2022-10-17T12:11:23.031Z,38.50
2022-10-17T12:13:51.921Z,38.30
2022-10-17T12:16:18.563Z,38.20
2022-10-17T12:18:49.085Z,38.00
2022-10-17T12:21:15.987Z,38.30
2022-10-17T12:23:51.503Z,40.80
2022-10-17T12:26:26.194Z,38.30
2022-10-17T12:28:53.136Z,39.10
2022-10-17T12:31:21.700Z,39.20
2022-10-17T12:38:45.710Z,37.00
2022-10-17T12:41:14.489Z,36.50
2022-10-17T12:46:11.597Z,36.40
2022-10-17T12:48:38.296Z,38.30
2022-10-17T12:53:58.338Z,41.10
2022-10-17T12:58:52.002Z,44.30
2022-10-17T13:01:27.598Z,46.00
2022-10-17T13:03:55.045Z,47.80
2022-10-17T13:06:25.617Z,48.60
2022-10-17T13:11:25.473Z,51.20
2022-10-17T13:13:56.891Z,48.20
2022-10-17T13:16:33.684Z,49.20
2022-10-17T13:19:00.844Z,48.90
2022-10-17T13:21:28.882Z,48.60
2022-10-17T13:23:55.783Z,50.80
2022-10-17T13:26:24.080Z,48.70
2022-10-17T13:29:03.001Z,47.20
2022-10-17T13:31:31.157Z,48.10
2022-10-17T13:33:58.723Z,47.60
2022-10-17T13:36:25.918Z,48.40
2022-10-17T13:38:52.849Z,51.50
2022-10-17T13:41:35.352Z,46.90
2022-10-17T13:44:04.374Z,46.90
2022-10-17T13:46:38.295Z,48.10
2022-10-17T13:49:18.130Z,49.30
2022-10-17T13:51:46.116Z,47.60
2022-10-17T13:56:40.772Z,49.40
2022-10-17T13:59:18.279Z,49.50
2022-10-17T14:01:45.196Z,50.70
2022-10-17T14:04:19.413Z,50.00
2022-10-17T14:06:49.577Z,52.80
2022-10-17T14:09:21.020Z,54.80
2022-10-17T14:11:56.841Z,52.70
2022-10-17T14:14:24.308Z,55.40
2022-10-17T14:16:51.122Z,58.60
2022-10-17T14:19:24.612Z,54.50
2022-10-17T14:21:56.833Z,53.80
2022-10-17T14:24:23.487Z,54.90
2022-10-17T14:26:51.235Z,56.70
2022-10-17T14:29:23.083Z,58.30
2022-10-17T14:31:53.407Z,61.10
2022-10-17T14:34:21.880Z,56.00
2022-10-17T14:36:50.088Z,55.90
2022-10-17T14:39:19.815Z,61.00
2022-10-17T14:41:47.082Z,59.80
2022-10-17T14:44:23.483Z,55.30
2022-10-17T14:46:54.934Z,55.90
2022-10-17T14:49:25.640Z,55.90
2022-10-17T14:52:13.686Z,56.60
2022-10-17T14:54:44.430Z,60.00
2022-10-17T14:57:17.026Z,59.00
2022-10-17T14:59:53.660Z,58.60
2022-10-17T15:02:21.212Z,59.60
2022-10-17T15:04:47.924Z,62.10
2022-10-17T15:07:15.561Z,61.20
2022-10-17T15:09:42.931Z,64.30
2022-10-17T15:12:16.701Z,64.50
2022-10-17T15:14:43.888Z,67.00
2022-10-17T15:17:13.400Z,67.10
2022-10-17T15:19:39.987Z,70.50
2022-10-17T15:22:06.606Z,71.30
2022-10-17T15:24:33.217Z,69.20
2022-10-17T15:26:59.854Z,69.70
2022-10-17T15:29:26.940Z,70.60
2022-10-17T15:31:54.029Z,74.00
2022-10-17T15:34:20.749Z,74.50
2022-10-17T15:36:51.317Z,74.40
2022-10-17T15:39:17.905Z,76.00
2022-10-17T15:41:44.616Z,77.50
2022-10-17T15:44:11.253Z,79.40
2022-10-17T15:46:39.713Z,80.90
2022-10-17T15:49:09.953Z,82.40
2022-10-17T15:51:36.665Z,83.70
2022-10-17T15:54:04.816Z,84.90
2022-10-17T15:56:35.828Z,85.80
2022-10-17T15:59:03.683Z,86.40
2022-10-17T16:01:31.344Z,87.70
2022-10-17T16:03:58.284Z,88.80
2022-10-17T16:06:25.221Z,89.40
2022-10-17T16:08:52.212Z,90.50
2022-10-17T16:11:34.639Z,90.40
2022-10-17T16:14:04.527Z,91.00
2022-10-17T16:18:58.458Z,91.50
2022-10-17T16:21:26.320Z,92.20
2022-10-17T16:23:53.268Z,92.40
2022-10-17T16:26:20.019Z,92.70
2022-10-17T16:28:47.035Z,93.20
2022-10-17T16:31:21.452Z,93.60
2022-10-17T16:33:48.659Z,93.80
2022-10-17T16:36:15.244Z,94.20
2022-10-17T16:38:41.901Z,94.50
2022-10-17T16:41:14.864Z,94.70
2022-10-17T16:43:41.600Z,94.90
2022-10-17T16:46:08.156Z,95.70
2022-10-17T16:48:34.757Z,95.80
2022-10-17T16:51:02.233Z,95.70
2022-10-17T16:53:28.839Z,96.20
2022-10-17T16:55:59.466Z,96.50
2022-10-17T16:58:27.452Z,96.80
2022-10-17T17:00:54.173Z,97.20
2022-10-17T17:03:20.797Z,97.60
2022-10-17T17:05:51.516Z,97.90
2022-10-17T17:08:18.311Z,98.20
2022-10-17T17:10:46.131Z,98.50
2022-10-17T17:13:12.809Z,98.80
2022-10-17T17:15:39.433Z,99.20
2022-10-17T17:18:06.795Z,99.50
2022-10-17T17:20:33.984Z,99.80
2022-10-17T17:23:00.565Z,99.90
2022-10-17T17:25:27.230Z,99.90
2022-10-17T17:27:53.791Z,99.90
2022-10-17T17:30:20.357Z,99.90
2022-10-17T17:32:46.984Z,99.90
2022-10-17T17:35:13.610Z,99.90
2022-10-17T17:37:40.181Z,99.90
2022-10-17T17:40:07.130Z,99.90
2022-10-17T17:42:33.707Z,99.90
2022-10-17T17:45:00.290Z,99.90
2022-10-17T17:47:28.554Z,99.90
2022-10-17T17:49:55.324Z,99.90
2022-10-17T17:52:21.875Z,99.90
2022-10-17T17:54:48.536Z,99.90
2022-10-17T17:57:15.116Z,99.90
2022-10-17T17:59:41.724Z,99.90
2022-10-17T18:02:09.583Z,99.90
2022-10-17T18:04:36.232Z,99.90
2022-10-17T18:07:02.830Z,99.90
2022-10-17T18:09:29.417Z,99.90
2022-10-17T18:11:55.999Z,99.90
2022-10-17T18:14:25.616Z,99.90
2022-10-17T18:16:52.237Z,99.90
2022-10-17T18:19:18.940Z,99.90
2022-10-17T18:21:45.572Z,99.90
2022-10-17T18:24:12.177Z,99.90
2022-10-17T18:26:38.906Z,99.90
2022-10-17T18:29:05.592Z,99.90
2022-10-17T18:31:35.864Z,99.90
2022-10-17T18:34:04.140Z,99.90
2022-10-17T18:36:31.366Z,99.90
2022-10-17T18:38:59.046Z,99.90
2022-10-17T18:41:26.263Z,99.90
2022-10-17T18:43:53.864Z,99.90
2022-10-17T18:46:21.573Z,99.90
2022-10-17T18:48:48.680Z,99.90
2022-10-17T18:51:16.028Z,99.90
2022-10-17T18:53:52.600Z,99.90
2022-10-17T18:56:19.635Z,99.90
2022-10-17T18:58:46.467Z,99.90
2022-10-17T19:01:17.625Z,99.90
2022-10-17T19:03:45.310Z,99.90
2022-10-17T19:06:12.780Z,99.90
2022-10-17T19:08:39.616Z,99.90
2022-10-17T19:11:06.784Z,99.90
2022-10-17T19:13:33.509Z,99.90
2022-10-17T19:16:00.492Z,99.90
2022-10-17T19:18:27.086Z,99.90
2022-10-17T19:20:53.678Z,99.90
2022-10-17T19:23:20.232Z,99.90
2022-10-17T19:25:46.905Z,99.90
2022-10-17T19:28:13.619Z,99.90
2022-10-17T19:30:41.607Z,99.90
2022-10-17T19:33:08.159Z,99.90
2022-10-17T19:35:35.359Z,99.90
2022-10-17T19:38:01.984Z,99.90
2022-10-17T19:40:28.788Z,99.90
2022-10-17T19:42:55.351Z,99.90
2022-10-17T19:45:22.004Z,99.90
2022-10-17T19:47:48.568Z,99.90
2022-10-17T19:50:15.311Z,99.90
2022-10-17T19:52:42.016Z,99.90
2022-10-17T19:55:08.760Z,99.90
2022-10-17T19:57:36.736Z,99.90
2022-10-17T20:00:04.015Z,99.90
2022-10-17T20:02:30.720Z,99.90
2022-10-17T20:05:17.064Z,99.90
2022-10-17T20:07:44.172Z,99.90
2022-10-17T20:10:10.779Z,99.90
2022-10-17T20:12:37.359Z,99.90
2022-10-17T20:15:04.655Z,99.90
2022-10-17T20:17:31.476Z,99.90
2022-10-17T20:19:58.167Z,99.90
2022-10-17T20:22:24.920Z,99.90
2022-10-17T20:24:51.665Z,99.90
2022-10-17T20:27:18.247Z,99.90
2022-10-17T20:29:44.965Z,99.90
2022-10-17T20:32:11.521Z,99.90
2022-10-17T20:34:38.328Z,99.90
2022-10-17T20:37:05.025Z,99.90
2022-10-17T20:39:31.692Z,99.90
2022-10-17T20:41:58.267Z,99.90
2022-10-17T20:44:24.878Z,99.90
2022-10-17T20:47:01.664Z,99.90
2022-10-17T20:49:28.900Z,99.90
2022-10-17T20:51:55.550Z,99.90
2022-10-17T20:54:22.373Z,99.90
2022-10-17T20:56:49.156Z,99.90
2022-10-17T20:59:16.740Z,99.90
2022-10-17T21:01:44.005Z,99.90
2022-10-17T21:04:40.358Z,99.90
2022-10-17T21:06:57.795Z,99.90
2022-10-17T21:09:24.617Z,99.90
2022-10-17T21:11:54.920Z,99.90
2022-10-17T21:14:22.110Z,99.90
2022-10-17T21:16:48.835Z,99.90
2022-10-17T21:19:16.007Z,99.90
2022-10-17T21:21:44.584Z,99.90
2022-10-17T21:24:13.980Z,99.90
2022-10-17T21:26:41.527Z,99.90
2022-10-17T21:29:09.217Z,99.90
2022-10-17T21:31:36.660Z,99.90
2022-10-17T21:34:10.812Z,99.90
2022-10-17T21:36:37.676Z,99.90
2022-10-17T21:39:04.746Z,99.90
2022-10-17T21:41:31.717Z,99.90
2022-10-17T21:44:00.047Z,99.90
2022-10-17T21:46:27.016Z,99.90
